sensor_id;sensor_type;location;lat;lon;timestamp;temperature;humidity
30648;DHT22;17683;53.360;9.736;2023-11-19T00:00:21;5.70;99.90
30648;DHT22;17683;53.360;9.736;2023-11-19T00:02:48;5.80;99.90
30648;DHT22;17683;53.360;9.736;2023-11-19T00:05:14;5.80;99.90
30648;DHT22;17683;53.360;9.736;2023-11-19T00:07:40;5.80;99.90
30648;DHT22;17683;53.360;9.736;2023-11-19T00:12:43;5.80;99.90
30648;DHT22;17683;53.360;9.736;2023-11-19T00:15:13;5.80;99.90
30648;DHT22;17683;53.360;9.736;2023-11-19T00:17:43;5.80;99.90
30648;DHT22;17683;53.360;9.736;2023-11-19T00:20:17;5.80;99.90
30648;DHT22;17683;53.360;9.736;2023-11-19T00:22:43;5.80;99.90
30648;DHT22;17683;53.360;9.736;2023-11-19T00:25:09;5.80;99.90
30648;DHT22;17683;53.360;9.736;2023-11-19T00:27:36;5.80;99.90
30648;DHT22;17683;53.360;9.736;2023-11-19T00:30:03;5.80;99.90
30648;DHT22;17683;53.360;9.736;2023-11-19T00:32:31;5.80;99.90
30648;DHT22;17683;53.360;9.736;2023-11-19T00:34:57;5.90;99.90
30648;DHT22;17683;53.360;9.736;2023-11-19T00:37:23;5.90;99.90
30648;DHT22;17683;53.360;9.736;2023-11-19T00:39:48;5.90;99.90
30648;DHT22;17683;53.360;9.736;2023-11-19T00:42:14;5.90;99.90
30648;DHT22;17683;53.360;9.736;2023-11-19T00:44:40;5.90;99.90
30648;DHT22;17683;53.360;9.736;2023-11-19T00:47:06;5.90;99.90
30648;DHT22;17683;53.360;9.736;2023-11-19T00:49:32;5.90;99.90
30648;DHT22;17683;53.360;9.736;2023-11-19T00:52:00;5.90;99.90
30648;DHT22;17683;53.360;9.736;2023-11-19T00:54:27;5.90;99.90
30648;DHT22;17683;53.360;9.736;2023-11-19T00:56:53;5.90;99.90
30648;DHT22;17683;53.360;9.736;2023-11-19T00:59:19;5.90;99.90
30648;DHT22;17683;53.360;9.736;2023-11-19T01:01:45;5.90;99.90
30648;DHT22;17683;53.360;9.736;2023-11-19T01:04:10;5.90;99.90
30648;DHT22;17683;53.360;9.736;2023-11-19T01:06:36;6.00;99.90
30648;DHT22;17683;53.360;9.736;2023-11-19T01:09:02;5.90;99.90
30648;DHT22;17683;53.360;9.736;2023-11-19T01:11:28;6.00;99.90
30648;DHT22;17683;53.360;9.736;2023-11-19T01:13:53;6.00;99.90
30648;DHT22;17683;53.360;9.736;2023-11-19T01:16:19;6.00;99.90
30648;DHT22;17683;53.360;9.736;2023-11-19T01:18:49;6.00;99.90
30648;DHT22;17683;53.360;9.736;2023-11-19T01:21:15;6.00;99.90
30648;DHT22;17683;53.360;9.736;2023-11-19T01:23:41;6.10;99.90
30648;DHT22;17683;53.360;9.736;2023-11-19T01:26:11;6.00;99.90
30648;DHT22;17683;53.360;9.736;2023-11-19T01:28:38;6.10;99.90
30648;DHT22;17683;53.360;9.736;2023-11-19T01:31:05;6.10;99.90
30648;DHT22;17683;53.360;9.736;2023-11-19T01:33:35;6.00;99.90
30648;DHT22;17683;53.360;9.736;2023-11-19T01:36:01;6.10;99.90
30648;DHT22;17683;53.360;9.736;2023-11-19T01:38:27;6.10;99.90
30648;DHT22;17683;53.360;9.736;2023-11-19T01:40:56;6.10;99.90
30648;DHT22;17683;53.360;9.736;2023-11-19T01:43:37;6.10;99.90
30648;DHT22;17683;53.360;9.736;2023-11-19T01:46:05;6.20;99.90
30648;DHT22;17683;53.360;9.736;2023-11-19T01:48:34;6.20;99.90
30648;DHT22;17683;53.360;9.736;2023-11-19T01:51:02;6.20;99.90
30648;DHT22;17683;53.360;9.736;2023-11-19T01:53:29;6.20;99.90
30648;DHT22;17683;53.360;9.736;2023-11-19T01:55:56;6.20;99.90
30648;DHT22;17683;53.360;9.736;2023-11-19T01:58:23;6.20;99.90
30648;DHT22;17683;53.360;9.736;2023-11-19T02:00:48;6.20;99.90
30648;DHT22;17683;53.360;9.736;2023-11-19T02:03:14;6.30;99.90
30648;DHT22;17683;53.360;9.736;2023-11-19T02:05:41;6.20;99.90
30648;DHT22;17683;53.360;9.736;2023-11-19T02:08:07;6.30;99.90
30648;DHT22;17683;53.360;9.736;2023-11-19T02:10:33;6.30;99.90
30648;DHT22;17683;53.360;9.736;2023-11-19T02:12:59;6.30;99.90
30648;DHT22;17683;53.360;9.736;2023-11-19T02:15:24;6.30;99.90
30648;DHT22;17683;53.360;9.736;2023-11-19T02:17:53;6.40;99.90
30648;DHT22;17683;53.360;9.736;2023-11-19T02:20:18;6.40;99.90
30648;DHT22;17683;53.360;9.736;2023-11-19T02:22:48;6.40;99.90
30648;DHT22;17683;53.360;9.736;2023-11-19T02:25:30;6.40;99.90
30648;DHT22;17683;53.360;9.736;2023-11-19T02:28:01;6.40;99.90
30648;DHT22;17683;53.360;9.736;2023-11-19T02:30:27;6.40;99.90
30648;DHT22;17683;53.360;9.736;2023-11-19T02:32:54;6.50;99.90
30648;DHT22;17683;53.360;9.736;2023-11-19T02:35:23;6.50;99.90
30648;DHT22;17683;53.360;9.736;2023-11-19T02:37:48;6.50;99.90
30648;DHT22;17683;53.360;9.736;2023-11-19T02:40:14;6.50;99.90
30648;DHT22;17683;53.360;9.736;2023-11-19T02:42:40;6.50;99.90
30648;DHT22;17683;53.360;9.736;2023-11-19T02:45:06;6.50;99.90
30648;DHT22;17683;53.360;9.736;2023-11-19T02:47:33;6.60;99.90
30648;DHT22;17683;53.360;9.736;2023-11-19T02:49:59;6.60;99.90
30648;DHT22;17683;53.360;9.736;2023-11-19T02:52:25;6.60;99.90
30648;DHT22;17683;53.360;9.736;2023-11-19T02:54:51;6.70;99.90
30648;DHT22;17683;53.360;9.736;2023-11-19T02:57:17;6.70;99.90
30648;DHT22;17683;53.360;9.736;2023-11-19T02:59:45;6.70;99.90
30648;DHT22;17683;53.360;9.736;2023-11-19T03:02:11;6.80;99.90
30648;DHT22;17683;53.360;9.736;2023-11-19T03:04:37;6.80;99.90
30648;DHT22;17683;53.360;9.736;2023-11-19T03:07:06;6.80;99.90
30648;DHT22;17683;53.360;9.736;2023-11-19T03:09:35;6.80;99.90
30648;DHT22;17683;53.360;9.736;2023-11-19T03:12:01;6.80;99.90
30648;DHT22;17683;53.360;9.736;2023-11-19T03:14:27;6.80;99.90
30648;DHT22;17683;53.360;9.736;2023-11-19T03:16:53;6.80;99.90
30648;DHT22;17683;53.360;9.736;2023-11-19T03:19:19;6.90;99.90
30648;DHT22;17683;53.360;9.736;2023-11-19T03:21:45;6.90;99.90
30648;DHT22;17683;53.360;9.736;2023-11-19T03:24:13;6.90;99.90
30648;DHT22;17683;53.360;9.736;2023-11-19T03:26:39;6.90;99.90
30648;DHT22;17683;53.360;9.736;2023-11-19T03:29:04;6.90;99.90
30648;DHT22;17683;53.360;9.736;2023-11-19T03:31:30;6.90;99.90
30648;DHT22;17683;53.360;9.736;2023-11-19T03:33:56;7.00;99.90
30648;DHT22;17683;53.360;9.736;2023-11-19T03:36:22;7.00;99.90
30648;DHT22;17683;53.360;9.736;2023-11-19T03:38:48;7.10;99.90
30648;DHT22;17683;53.360;9.736;2023-11-19T03:41:14;7.20;99.90
30648;DHT22;17683;53.360;9.736;2023-11-19T03:43:40;7.20;99.90
30648;DHT22;17683;53.360;9.736;2023-11-19T03:46:21;7.30;99.90
30648;DHT22;17683;53.360;9.736;2023-11-19T03:48:48;7.30;99.90
30648;DHT22;17683;53.360;9.736;2023-11-19T03:51:14;7.40;99.90
30648;DHT22;17683;53.360;9.736;2023-11-19T03:53:44;7.40;99.90
30648;DHT22;17683;53.360;9.736;2023-11-19T03:56:10;7.40;99.90
30648;DHT22;17683;53.360;9.736;2023-11-19T03:58:36;7.40;99.90
30648;DHT22;17683;53.360;9.736;2023-11-19T04:01:13;7.50;99.90
30648;DHT22;17683;53.360;9.736;2023-11-19T04:03:41;7.60;99.90
30648;DHT22;17683;53.360;9.736;2023-11-19T04:06:07;7.60;99.90
30648;DHT22;17683;53.360;9.736;2023-11-19T04:08:33;7.60;99.90
30648;DHT22;17683;53.360;9.736;2023-11-19T04:11:00;7.70;99.90
30648;DHT22;17683;53.360;9.736;2023-11-19T04:13:26;7.70;99.90
30648;DHT22;17683;53.360;9.736;2023-11-19T04:15:52;7.80;99.90
30648;DHT22;17683;53.360;9.736;2023-11-19T04:18:17;7.80;99.90
30648;DHT22;17683;53.360;9.736;2023-11-19T04:20:43;7.90;99.90
30648;DHT22;17683;53.360;9.736;2023-11-19T04:23:09;8.00;99.90
30648;DHT22;17683;53.360;9.736;2023-11-19T04:25:35;8.00;99.90
30648;DHT22;17683;53.360;9.736;2023-11-19T04:28:01;8.10;99.90
30648;DHT22;17683;53.360;9.736;2023-11-19T04:30:28;8.20;99.90
30648;DHT22;17683;53.360;9.736;2023-11-19T04:32:53;8.20;99.90
30648;DHT22;17683;53.360;9.736;2023-11-19T04:35:19;8.20;99.90
30648;DHT22;17683;53.360;9.736;2023-11-19T04:37:45;8.20;99.90
30648;DHT22;17683;53.360;9.736;2023-11-19T04:40:11;8.30;99.90
30648;DHT22;17683;53.360;9.736;2023-11-19T04:42:38;8.30;99.90
30648;DHT22;17683;53.360;9.736;2023-11-19T04:45:06;8.30;99.90
30648;DHT22;17683;53.360;9.736;2023-11-19T04:47:33;8.40;99.90
30648;DHT22;17683;53.360;9.736;2023-11-19T04:49:59;8.40;99.90
30648;DHT22;17683;53.360;9.736;2023-11-19T04:52:25;8.40;99.90
30648;DHT22;17683;53.360;9.736;2023-11-19T04:54:51;8.50;99.90
30648;DHT22;17683;53.360;9.736;2023-11-19T04:57:17;8.50;99.90
30648;DHT22;17683;53.360;9.736;2023-11-19T04:59:42;8.60;99.90
30648;DHT22;17683;53.360;9.736;2023-11-19T05:02:08;8.60;99.90
30648;DHT22;17683;53.360;9.736;2023-11-19T05:04:34;8.70;99.90
30648;DHT22;17683;53.360;9.736;2023-11-19T05:07:00;8.70;99.90
30648;DHT22;17683;53.360;9.736;2023-11-19T05:09:26;8.70;99.90
30648;DHT22;17683;53.360;9.736;2023-11-19T05:11:52;8.80;99.90
30648;DHT22;17683;53.360;9.736;2023-11-19T05:14:18;8.80;99.90
30648;DHT22;17683;53.360;9.736;2023-11-19T05:16:47;8.90;99.90
30648;DHT22;17683;53.360;9.736;2023-11-19T05:19:13;9.00;99.90
30648;DHT22;17683;53.360;9.736;2023-11-19T05:21:44;9.00;99.90
30648;DHT22;17683;53.360;9.736;2023-11-19T05:24:10;9.10;99.90
30648;DHT22;17683;53.360;9.736;2023-11-19T05:26:37;9.10;99.90
30648;DHT22;17683;53.360;9.736;2023-11-19T05:29:03;9.10;99.90
30648;DHT22;17683;53.360;9.736;2023-11-19T05:31:30;9.20;99.90
30648;DHT22;17683;53.360;9.736;2023-11-19T05:33:55;9.30;99.90
30648;DHT22;17683;53.360;9.736;2023-11-19T05:36:21;9.30;99.90
30648;DHT22;17683;53.360;9.736;2023-11-19T05:38:47;9.30;99.90
30648;DHT22;17683;53.360;9.736;2023-11-19T05:41:12;9.40;99.90
30648;DHT22;17683;53.360;9.736;2023-11-19T05:43:38;9.40;99.90
30648;DHT22;17683;53.360;9.736;2023-11-19T05:46:06;9.50;99.90
30648;DHT22;17683;53.360;9.736;2023-11-19T05:48:32;9.50;99.90
30648;DHT22;17683;53.360;9.736;2023-11-19T05:50:58;9.60;99.90
30648;DHT22;17683;53.360;9.736;2023-11-19T05:53:24;9.70;99.90
30648;DHT22;17683;53.360;9.736;2023-11-19T05:55:50;9.70;99.90
30648;DHT22;17683;53.360;9.736;2023-11-19T05:58:26;9.70;99.90
30648;DHT22;17683;53.360;9.736;2023-11-19T06:00:54;9.80;99.90
30648;DHT22;17683;53.360;9.736;2023-11-19T06:03:20;9.80;99.90
30648;DHT22;17683;53.360;9.736;2023-11-19T06:05:50;9.90;99.90
30648;DHT22;17683;53.360;9.736;2023-11-19T06:08:16;9.90;99.90
30648;DHT22;17683;53.360;9.736;2023-11-19T06:10:42;9.90;99.90
30648;DHT22;17683;53.360;9.736;2023-11-19T06:13:09;9.90;99.90
30648;DHT22;17683;53.360;9.736;2023-11-19T06:15:36;9.90;99.90
30648;DHT22;17683;53.360;9.736;2023-11-19T06:18:03;10.00;99.90
30648;DHT22;17683;53.360;9.736;2023-11-19T06:20:32;10.00;99.90
30648;DHT22;17683;53.360;9.736;2023-11-19T06:22:59;10.00;99.90
30648;DHT22;17683;53.360;9.736;2023-11-19T06:25:24;10.00;99.90
30648;DHT22;17683;53.360;9.736;2023-11-19T06:27:51;10.00;99.90
30648;DHT22;17683;53.360;9.736;2023-11-19T06:30:17;10.10;99.90
30648;DHT22;17683;53.360;9.736;2023-11-19T06:32:43;10.10;99.90
30648;DHT22;17683;53.360;9.736;2023-11-19T06:35:08;10.10;99.90
30648;DHT22;17683;53.360;9.736;2023-11-19T06:37:35;10.10;99.90
30648;DHT22;17683;53.360;9.736;2023-11-19T06:40:02;10.10;99.90
30648;DHT22;17683;53.360;9.736;2023-11-19T06:42:30;10.10;99.90
30648;DHT22;17683;53.360;9.736;2023-11-19T06:44:56;10.10;99.90
30648;DHT22;17683;53.360;9.736;2023-11-19T06:47:29;10.10;99.90
30648;DHT22;17683;53.360;9.736;2023-11-19T06:49:55;10.10;99.90
30648;DHT22;17683;53.360;9.736;2023-11-19T06:52:20;10.20;99.90
30648;DHT22;17683;53.360;9.736;2023-11-19T06:54:46;10.20;99.90
30648;DHT22;17683;53.360;9.736;2023-11-19T06:57:13;10.20;99.90
30648;DHT22;17683;53.360;9.736;2023-11-19T06:59:38;10.20;99.90
30648;DHT22;17683;53.360;9.736;2023-11-19T07:02:05;10.20;99.90
30648;DHT22;17683;53.360;9.736;2023-11-19T07:04:31;10.20;99.90
30648;DHT22;17683;53.360;9.736;2023-11-19T07:06:57;10.20;99.90
30648;DHT22;17683;53.360;9.736;2023-11-19T07:09:22;10.20;99.90
30648;DHT22;17683;53.360;9.736;2023-11-19T07:11:49;10.30;99.90
30648;DHT22;17683;53.360;9.736;2023-11-19T07:14:17;10.30;99.90
30648;DHT22;17683;53.360;9.736;2023-11-19T07:16:43;10.40;99.90
30648;DHT22;17683;53.360;9.736;2023-11-19T07:19:09;10.40;99.90
30648;DHT22;17683;53.360;9.736;2023-11-19T07:21:35;10.40;99.90
30648;DHT22;17683;53.360;9.736;2023-11-19T07:24:05;10.50;99.90
30648;DHT22;17683;53.360;9.736;2023-11-19T07:26:31;10.40;99.90
30648;DHT22;17683;53.360;9.736;2023-11-19T07:28:57;10.40;99.90
30648;DHT22;17683;53.360;9.736;2023-11-19T07:31:23;10.40;99.90
30648;DHT22;17683;53.360;9.736;2023-11-19T07:33:49;10.50;99.90
30648;DHT22;17683;53.360;9.736;2023-11-19T07:36:15;10.50;99.90
30648;DHT22;17683;53.360;9.736;2023-11-19T07:38:41;10.60;99.90
30648;DHT22;17683;53.360;9.736;2023-11-19T07:41:08;10.60;99.90
30648;DHT22;17683;53.360;9.736;2023-11-19T07:43:39;10.60;99.90
30648;DHT22;17683;53.360;9.736;2023-11-19T07:46:09;10.60;99.90
30648;DHT22;17683;53.360;9.736;2023-11-19T07:48:35;10.60;99.90
30648;DHT22;17683;53.360;9.736;2023-11-19T07:51:01;10.60;99.90
30648;DHT22;17683;53.360;9.736;2023-11-19T07:53:27;10.60;99.90
30648;DHT22;17683;53.360;9.736;2023-11-19T07:55:53;10.60;99.90
30648;DHT22;17683;53.360;9.736;2023-11-19T07:58:19;10.70;99.90
30648;DHT22;17683;53.360;9.736;2023-11-19T08:00:45;10.70;99.90
30648;DHT22;17683;53.360;9.736;2023-11-19T08:03:10;10.70;99.90
30648;DHT22;17683;53.360;9.736;2023-11-19T08:05:36;10.70;99.90
30648;DHT22;17683;53.360;9.736;2023-11-19T08:08:02;10.70;99.90
30648;DHT22;17683;53.360;9.736;2023-11-19T08:10:27;10.70;99.90
30648;DHT22;17683;53.360;9.736;2023-11-19T08:12:54;10.70;99.90
30648;DHT22;17683;53.360;9.736;2023-11-19T08:15:19;10.70;99.90
30648;DHT22;17683;53.360;9.736;2023-11-19T08:17:45;10.70;99.90
30648;DHT22;17683;53.360;9.736;2023-11-19T08:20:11;10.70;99.90
30648;DHT22;17683;53.360;9.736;2023-11-19T08:22:37;10.60;99.90
30648;DHT22;17683;53.360;9.736;2023-11-19T08:25:05;10.60;99.90
30648;DHT22;17683;53.360;9.736;2023-11-19T08:27:31;10.50;99.90
30648;DHT22;17683;53.360;9.736;2023-11-19T08:29:56;10.60;99.90
30648;DHT22;17683;53.360;9.736;2023-11-19T08:32:26;10.60;99.90
30648;DHT22;17683;53.360;9.736;2023-11-19T08:34:52;10.60;99.90
30648;DHT22;17683;53.360;9.736;2023-11-19T08:37:17;10.60;99.90
30648;DHT22;17683;53.360;9.736;2023-11-19T08:39:46;10.60;99.90
30648;DHT22;17683;53.360;9.736;2023-11-19T08:42:12;10.60;99.90
30648;DHT22;17683;53.360;9.736;2023-11-19T08:44:38;10.70;99.90
30648;DHT22;17683;53.360;9.736;2023-11-19T08:47:04;10.70;99.90
30648;DHT22;17683;53.360;9.736;2023-11-19T08:49:30;10.70;99.90
30648;DHT22;17683;53.360;9.736;2023-11-19T08:51:55;10.70;99.90
30648;DHT22;17683;53.360;9.736;2023-11-19T08:54:21;10.80;99.90
30648;DHT22;17683;53.360;9.736;2023-11-19T08:56:48;10.80;99.90
30648;DHT22;17683;53.360;9.736;2023-11-19T08:59:14;10.80;99.90
30648;DHT22;17683;53.360;9.736;2023-11-19T09:01:40;10.80;99.90
30648;DHT22;17683;53.360;9.736;2023-11-19T09:04:06;10.80;99.90
30648;DHT22;17683;53.360;9.736;2023-11-19T09:06:33;10.80;99.90
30648;DHT22;17683;53.360;9.736;2023-11-19T09:08:58;10.80;99.90
30648;DHT22;17683;53.360;9.736;2023-11-19T09:11:30;10.80;99.90
30648;DHT22;17683;53.360;9.736;2023-11-19T09:13:57;10.80;99.90
30648;DHT22;17683;53.360;9.736;2023-11-19T09:16:22;10.80;99.90
30648;DHT22;17683;53.360;9.736;2023-11-19T09:18:48;10.90;99.90
30648;DHT22;17683;53.360;9.736;2023-11-19T09:21:14;10.90;99.90
30648;DHT22;17683;53.360;9.736;2023-11-19T09:23:39;10.90;99.90
30648;DHT22;17683;53.360;9.736;2023-11-19T09:26:06;10.90;99.90
30648;DHT22;17683;53.360;9.736;2023-11-19T09:28:33;10.90;99.90
30648;DHT22;17683;53.360;9.736;2023-11-19T09:30:59;10.90;99.90
30648;DHT22;17683;53.360;9.736;2023-11-19T09:33:25;10.90;99.90
30648;DHT22;17683;53.360;9.736;2023-11-19T09:35:51;10.90;99.90
30648;DHT22;17683;53.360;9.736;2023-11-19T09:38:17;11.00;99.90
30648;DHT22;17683;53.360;9.736;2023-11-19T09:40:43;11.00;99.90
30648;DHT22;17683;53.360;9.736;2023-11-19T09:43:09;11.10;99.90
30648;DHT22;17683;53.360;9.736;2023-11-19T09:46:09;11.20;99.90
30648;DHT22;17683;53.360;9.736;2023-11-19T09:48:37;11.20;99.90
30648;DHT22;17683;53.360;9.736;2023-11-19T09:51:07;11.30;99.90
30648;DHT22;17683;53.360;9.736;2023-11-19T09:53:34;11.30;99.90
30648;DHT22;17683;53.360;9.736;2023-11-19T09:56:00;11.40;99.90
30648;DHT22;17683;53.360;9.736;2023-11-19T09:58:31;11.40;99.90
30648;DHT22;17683;53.360;9.736;2023-11-19T10:00:58;11.40;99.90
30648;DHT22;17683;53.360;9.736;2023-11-19T10:03:27;11.40;99.90
30648;DHT22;17683;53.360;9.736;2023-11-19T10:05:58;11.50;99.90
30648;DHT22;17683;53.360;9.736;2023-11-19T10:08:24;11.60;99.90
30648;DHT22;17683;53.360;9.736;2023-11-19T10:10:50;11.60;99.90
30648;DHT22;17683;53.360;9.736;2023-11-19T10:13:17;11.60;99.90
30648;DHT22;17683;53.360;9.736;2023-11-19T10:15:43;11.70;99.90
30648;DHT22;17683;53.360;9.736;2023-11-19T10:18:09;11.70;99.90
30648;DHT22;17683;53.360;9.736;2023-11-19T10:20:41;11.80;99.90
30648;DHT22;17683;53.360;9.736;2023-11-19T10:23:07;11.80;99.90
30648;DHT22;17683;53.360;9.736;2023-11-19T10:25:33;11.80;99.90
30648;DHT22;17683;53.360;9.736;2023-11-19T10:28:00;11.80;99.90
30648;DHT22;17683;53.360;9.736;2023-11-19T10:30:27;11.80;99.90
30648;DHT22;17683;53.360;9.736;2023-11-19T10:35:29;11.70;99.90
30648;DHT22;17683;53.360;9.736;2023-11-19T10:37:55;11.70;99.90
30648;DHT22;17683;53.360;9.736;2023-11-19T10:40:20;11.70;99.90
30648;DHT22;17683;53.360;9.736;2023-11-19T10:42:47;11.70;99.90
30648;DHT22;17683;53.360;9.736;2023-11-19T10:45:22;11.70;99.90
30648;DHT22;17683;53.360;9.736;2023-11-19T10:47:52;11.70;99.90
30648;DHT22;17683;53.360;9.736;2023-11-19T10:50:19;11.80;99.90
30648;DHT22;17683;53.360;9.736;2023-11-19T10:52:47;11.80;99.90
30648;DHT22;17683;53.360;9.736;2023-11-19T10:55:15;11.80;99.90
30648;DHT22;17683;53.360;9.736;2023-11-19T10:57:45;11.80;99.90
30648;DHT22;17683;53.360;9.736;2023-11-19T11:00:14;11.80;99.90
30648;DHT22;17683;53.360;9.736;2023-11-19T11:02:45;11.80;99.90
30648;DHT22;17683;53.360;9.736;2023-11-19T11:05:14;11.80;99.90
30648;DHT22;17683;53.360;9.736;2023-11-19T11:07:40;11.80;99.90
30648;DHT22;17683;53.360;9.736;2023-11-19T11:10:07;11.80;99.90
30648;DHT22;17683;53.360;9.736;2023-11-19T11:12:37;11.80;99.90
30648;DHT22;17683;53.360;9.736;2023-11-19T11:15:06;11.70;99.90
30648;DHT22;17683;53.360;9.736;2023-11-19T11:17:33;11.70;99.90
30648;DHT22;17683;53.360;9.736;2023-11-19T11:19:59;11.70;99.90
30648;DHT22;17683;53.360;9.736;2023-11-19T11:22:28;11.70;99.90
30648;DHT22;17683;53.360;9.736;2023-11-19T11:25:28;11.80;99.90
30648;DHT22;17683;53.360;9.736;2023-11-19T11:28:03;11.70;99.90
30648;DHT22;17683;53.360;9.736;2023-11-19T11:36:19;11.90;99.90
30648;DHT22;17683;53.360;9.736;2023-11-19T11:38:48;11.80;99.90
30648;DHT22;17683;53.360;9.736;2023-11-19T11:41:22;11.80;99.90
30648;DHT22;17683;53.360;9.736;2023-11-19T11:43:49;11.80;99.90
30648;DHT22;17683;53.360;9.736;2023-11-19T11:49:03;11.80;99.90
30648;DHT22;17683;53.360;9.736;2023-11-19T11:54:11;11.80;99.90
30648;DHT22;17683;53.360;9.736;2023-11-19T11:56:37;11.80;99.90
30648;DHT22;17683;53.360;9.736;2023-11-19T11:59:18;11.70;99.90
30648;DHT22;17683;53.360;9.736;2023-11-19T12:01:59;11.70;99.90
30648;DHT22;17683;53.360;9.736;2023-11-19T12:04:28;11.70;99.90
30648;DHT22;17683;53.360;9.736;2023-11-19T12:07:08;11.70;99.90
30648;DHT22;17683;53.360;9.736;2023-11-19T12:09:36;11.70;99.90
30648;DHT22;17683;53.360;9.736;2023-11-19T12:20:06;11.70;99.90
30648;DHT22;17683;53.360;9.736;2023-11-19T12:22:39;11.80;99.90
30648;DHT22;17683;53.360;9.736;2023-11-19T12:25:09;11.80;99.90
30648;DHT22;17683;53.360;9.736;2023-11-19T12:27:47;11.90;99.90
30648;DHT22;17683;53.360;9.736;2023-11-19T12:30:17;12.00;99.90
30648;DHT22;17683;53.360;9.736;2023-11-19T12:32:45;12.00;99.90
30648;DHT22;17683;53.360;9.736;2023-11-19T12:35:12;11.90;99.90
30648;DHT22;17683;53.360;9.736;2023-11-19T12:37:48;11.90;99.90
30648;DHT22;17683;53.360;9.736;2023-11-19T12:40:15;11.90;99.90
30648;DHT22;17683;53.360;9.736;2023-11-19T12:42:46;12.00;99.90
30648;DHT22;17683;53.360;9.736;2023-11-19T12:45:12;12.00;99.90
30648;DHT22;17683;53.360;9.736;2023-11-19T12:47:42;12.10;99.90
30648;DHT22;17683;53.360;9.736;2023-11-19T12:50:09;12.10;99.90
30648;DHT22;17683;53.360;9.736;2023-11-19T12:52:38;12.20;99.90
30648;DHT22;17683;53.360;9.736;2023-11-19T12:55:06;12.20;99.90
30648;DHT22;17683;53.360;9.736;2023-11-19T12:57:49;12.20;99.90
30648;DHT22;17683;53.360;9.736;2023-11-19T13:00:22;12.10;99.90
30648;DHT22;17683;53.360;9.736;2023-11-19T13:02:53;12.10;99.90
30648;DHT22;17683;53.360;9.736;2023-11-19T13:08:13;11.90;99.90
30648;DHT22;17683;53.360;9.736;2023-11-19T13:10:52;11.80;99.90
30648;DHT22;17683;53.360;9.736;2023-11-19T13:13:19;11.80;99.90
30648;DHT22;17683;53.360;9.736;2023-11-19T13:15:45;11.80;99.90
30648;DHT22;17683;53.360;9.736;2023-11-19T13:18:11;11.80;99.90
30648;DHT22;17683;53.360;9.736;2023-11-19T13:20:37;11.70;99.90
30648;DHT22;17683;53.360;9.736;2023-11-19T13:23:05;11.80;99.90
30648;DHT22;17683;53.360;9.736;2023-11-19T13:25:31;11.70;99.90
30648;DHT22;17683;53.360;9.736;2023-11-19T13:28:00;11.70;99.90
30648;DHT22;17683;53.360;9.736;2023-11-19T13:30:26;11.60;99.90
30648;DHT22;17683;53.360;9.736;2023-11-19T13:32:52;11.60;99.90
30648;DHT22;17683;53.360;9.736;2023-11-19T13:35:20;11.60;99.90
30648;DHT22;17683;53.360;9.736;2023-11-19T13:37:46;11.60;99.90
30648;DHT22;17683;53.360;9.736;2023-11-19T13:40:13;11.60;99.90
30648;DHT22;17683;53.360;9.736;2023-11-19T13:42:40;11.60;99.90
30648;DHT22;17683;53.360;9.736;2023-11-19T13:45:10;11.60;99.90
30648;DHT22;17683;53.360;9.736;2023-11-19T13:47:41;11.60;99.90
30648;DHT22;17683;53.360;9.736;2023-11-19T13:50:11;11.50;99.90
30648;DHT22;17683;53.360;9.736;2023-11-19T13:52:38;11.50;99.90
30648;DHT22;17683;53.360;9.736;2023-11-19T13:55:08;11.50;99.90
30648;DHT22;17683;53.360;9.736;2023-11-19T13:57:38;11.50;99.90
30648;DHT22;17683;53.360;9.736;2023-11-19T14:00:06;11.50;99.90
30648;DHT22;17683;53.360;9.736;2023-11-19T14:02:35;11.50;99.90
30648;DHT22;17683;53.360;9.736;2023-11-19T14:05:01;11.50;99.90
30648;DHT22;17683;53.360;9.736;2023-11-19T14:07:27;11.50;99.90
30648;DHT22;17683;53.360;9.736;2023-11-19T14:09:53;11.50;99.90
30648;DHT22;17683;53.360;9.736;2023-11-19T14:12:19;11.50;99.90
30648;DHT22;17683;53.360;9.736;2023-11-19T14:14:45;11.50;99.90
30648;DHT22;17683;53.360;9.736;2023-11-19T14:17:12;11.50;99.90
30648;DHT22;17683;53.360;9.736;2023-11-19T14:19:38;11.40;99.90
30648;DHT22;17683;53.360;9.736;2023-11-19T14:22:05;11.50;99.90
30648;DHT22;17683;53.360;9.736;2023-11-19T14:24:31;11.50;99.90
30648;DHT22;17683;53.360;9.736;2023-11-19T14:26:56;11.50;99.90
30648;DHT22;17683;53.360;9.736;2023-11-19T14:29:24;11.50;99.90
30648;DHT22;17683;53.360;9.736;2023-11-19T14:31:51;11.50;99.90
30648;DHT22;17683;53.360;9.736;2023-11-19T14:34:18;11.50;99.90
30648;DHT22;17683;53.360;9.736;2023-11-19T14:36:44;11.50;99.90
30648;DHT22;17683;53.360;9.736;2023-11-19T14:39:10;11.50;99.90
30648;DHT22;17683;53.360;9.736;2023-11-19T14:41:36;11.40;99.90
30648;DHT22;17683;53.360;9.736;2023-11-19T14:44:02;11.40;99.90
30648;DHT22;17683;53.360;9.736;2023-11-19T14:46:29;11.40;99.90
30648;DHT22;17683;53.360;9.736;2023-11-19T14:48:55;11.40;99.90
30648;DHT22;17683;53.360;9.736;2023-11-19T14:51:20;11.30;99.90
30648;DHT22;17683;53.360;9.736;2023-11-19T14:53:47;11.30;99.90
30648;DHT22;17683;53.360;9.736;2023-11-19T14:56:12;11.30;99.90
30648;DHT22;17683;53.360;9.736;2023-11-19T14:58:39;11.30;99.90
30648;DHT22;17683;53.360;9.736;2023-11-19T15:01:05;11.20;99.90
30648;DHT22;17683;53.360;9.736;2023-11-19T15:03:31;11.20;99.90
30648;DHT22;17683;53.360;9.736;2023-11-19T15:05:56;11.20;99.90
30648;DHT22;17683;53.360;9.736;2023-11-19T15:08:22;11.20;99.90
30648;DHT22;17683;53.360;9.736;2023-11-19T15:10:48;11.10;99.90
30648;DHT22;17683;53.360;9.736;2023-11-19T15:13:14;11.10;99.90
30648;DHT22;17683;53.360;9.736;2023-11-19T15:15:39;11.00;99.90
30648;DHT22;17683;53.360;9.736;2023-11-19T15:18:05;11.00;99.90
30648;DHT22;17683;53.360;9.736;2023-11-19T15:20:31;11.00;99.90
30648;DHT22;17683;53.360;9.736;2023-11-19T15:22:57;11.00;99.90
30648;DHT22;17683;53.360;9.736;2023-11-19T15:25:23;10.90;99.90
30648;DHT22;17683;53.360;9.736;2023-11-19T15:27:49;10.90;99.90
30648;DHT22;17683;53.360;9.736;2023-11-19T15:30:15;10.90;99.90
30648;DHT22;17683;53.360;9.736;2023-11-19T15:32:42;10.80;99.90
30648;DHT22;17683;53.360;9.736;2023-11-19T15:35:09;10.80;99.90
30648;DHT22;17683;53.360;9.736;2023-11-19T15:37:38;10.80;99.90
30648;DHT22;17683;53.360;9.736;2023-11-19T15:40:09;10.70;99.90
30648;DHT22;17683;53.360;9.736;2023-11-19T15:42:38;10.70;99.90
30648;DHT22;17683;53.360;9.736;2023-11-19T15:45:06;10.60;99.90
30648;DHT22;17683;53.360;9.736;2023-11-19T15:47:35;10.60;99.90
30648;DHT22;17683;53.360;9.736;2023-11-19T15:50:02;10.60;99.90
30648;DHT22;17683;53.360;9.736;2023-11-19T15:52:31;10.60;99.90
30648;DHT22;17683;53.360;9.736;2023-11-19T15:54:57;10.60;99.90
30648;DHT22;17683;53.360;9.736;2023-11-19T15:57:23;10.50;99.90
30648;DHT22;17683;53.360;9.736;2023-11-19T15:59:49;10.50;99.90
30648;DHT22;17683;53.360;9.736;2023-11-19T16:02:16;10.50;99.90
30648;DHT22;17683;53.360;9.736;2023-11-19T16:04:42;10.50;99.90